In Rescue
 
Open Full Screen Window  High Contrast Mode
Wind Gusting 00 knots
05
January 17, 2021 1:01 PM CST
Weather Information
Wind Direction
  310 °
Wind Speed
  05 kt (6 mph)
Wind Gust
  00 kt (0 mph)
Altimeter
29.76 in
Visibility
10 SM
Temperature
-07° C
19° F
Dewpoint
-07° C
19° F
Humidity
100%
1hr Rain Fall
00.00 in.
24hr Rain Fall
00.00 in.
Sky Condition
Overcast @ 2,900 ft
Broken @ 900 ft
IFR

METAR KBJI 171901Z AUTO 31005KT 10SM BKN009 OVC029 M07/M07 A2976 RMK AO2 T10661070

FAA Disclaimer: The data displayed is for advisory purposes only and is not to be used for flight planning or operations.